createdAt,value
2018-12-02T00:01:27.621Z,7.37
2018-12-02T00:04:01.403Z,7.70
2018-12-02T00:06:33.925Z,8.37
2018-12-02T00:09:06.209Z,7.93
2018-12-02T00:11:38.456Z,7.90
2018-12-02T00:14:09.842Z,8.30
2018-12-02T00:16:42.154Z,7.97
2018-12-02T00:19:14.234Z,8.27
2018-12-02T00:21:45.661Z,8.30
2018-12-02T00:24:17.987Z,7.80
2018-12-02T00:26:49.837Z,7.83
2018-12-02T00:29:22.466Z,7.90
2018-12-02T00:31:54.166Z,8.43
2018-12-02T00:34:25.775Z,7.67
2018-12-02T00:36:57.104Z,7.70
2018-12-02T00:39:28.466Z,8.40
2018-12-02T00:42:00.380Z,7.70
2018-12-02T00:44:31.702Z,7.87
2018-12-02T00:47:03.464Z,7.83
2018-12-02T00:49:35.214Z,8.60
2018-12-02T00:52:06.547Z,9.17
2018-12-02T00:54:38.240Z,8.67
2018-12-02T00:57:10.582Z,8.20
2018-12-02T00:59:42.065Z,8.27
2018-12-02T01:02:13.459Z,8.87
2018-12-02T01:04:44.657Z,8.50
2018-12-02T01:07:16.111Z,8.60
2018-12-02T01:09:47.458Z,9.07
2018-12-02T01:12:19.630Z,8.70
2018-12-02T01:14:51.605Z,8.57
2018-12-02T01:17:23.195Z,8.23
2018-12-02T01:19:54.844Z,8.07
2018-12-02T01:22:27.640Z,9.20
2018-12-02T01:24:59.655Z,8.80
2018-12-02T01:27:30.959Z,8.33
2018-12-02T01:30:02.390Z,8.40
2018-12-02T01:32:33.992Z,8.90
2018-12-02T01:35:05.480Z,8.50
2018-12-02T01:37:37.005Z,8.30
2018-12-02T01:40:10.364Z,7.30
2018-12-02T01:42:41.793Z,8.10
2018-12-02T01:45:25.805Z,7.70
2018-12-02T01:47:57.889Z,7.37
2018-12-02T01:50:29.261Z,7.17
2018-12-02T01:53:01.054Z,7.20
2018-12-02T01:55:32.870Z,6.30
2018-12-02T01:58:04.184Z,6.17
2018-12-02T02:00:35.544Z,6.40
2018-12-02T02:03:07.022Z,6.13
2018-12-02T02:05:40.068Z,5.83
2018-12-02T02:08:12.800Z,5.70
2018-12-02T02:10:44.682Z,5.57
2018-12-02T02:13:16.049Z,5.50
2018-12-02T02:15:47.711Z,4.67
2018-12-02T02:18:19.628Z,4.67
2018-12-02T02:20:50.980Z,4.43
2018-12-02T02:23:22.958Z,4.33
2018-12-02T02:25:55.233Z,4.60
2018-12-02T02:28:26.836Z,4.00
2018-12-02T02:30:58.455Z,4.57
2018-12-02T02:33:29.834Z,4.23
2018-12-02T02:36:02.214Z,4.00
2018-12-02T02:38:33.814Z,4.33
2018-12-02T02:41:05.197Z,3.80
2018-12-02T02:43:37.127Z,3.90
2018-12-02T02:46:09.222Z,3.60
2018-12-02T02:48:40.686Z,3.60
2018-12-02T02:51:11.876Z,3.30
2018-12-02T02:53:43.952Z,3.30
2018-12-02T02:56:16.259Z,3.30
2018-12-02T02:58:48.427Z,3.33
2018-12-02T03:01:20.101Z,3.23
2018-12-02T03:03:53.134Z,2.80
2018-12-02T03:06:25.070Z,3.30
2018-12-02T03:08:57.010Z,3.00
2018-12-02T03:11:28.950Z,3.20
2018-12-02T03:14:00.327Z,2.93
2018-12-02T03:16:32.052Z,3.57
2018-12-02T03:19:04.110Z,3.53
2018-12-02T03:21:36.325Z,2.90
2018-12-02T03:24:08.976Z,3.10
2018-12-02T03:26:40.621Z,2.87
2018-12-02T03:29:12.176Z,3.00
2018-12-02T03:31:43.546Z,3.00
2018-12-02T03:34:14.907Z,2.60
2018-12-02T03:36:46.297Z,2.70
2018-12-02T03:39:18.792Z,2.67
2018-12-02T03:41:50.233Z,3.00
2018-12-02T03:44:21.660Z,2.80
2018-12-02T03:46:54.943Z,2.73
2018-12-02T03:49:26.902Z,2.97
2018-12-02T03:51:59.050Z,3.03
2018-12-02T03:54:30.979Z,2.83
2018-12-02T03:57:02.287Z,2.90
2018-12-02T03:59:33.593Z,3.20
2018-12-02T04:02:05.042Z,2.70
2018-12-02T04:04:36.362Z,3.10
2018-12-02T04:07:07.948Z,3.20
2018-12-02T04:09:39.680Z,3.13
2018-12-02T04:12:11.993Z,2.97
2018-12-02T04:14:43.332Z,3.10
2018-12-02T04:17:15.470Z,3.20
2018-12-02T04:19:48.092Z,2.87
2018-12-02T04:22:19.688Z,2.73
2018-12-02T04:24:53.295Z,3.00
2018-12-02T04:27:24.917Z,2.97
2018-12-02T04:29:56.293Z,2.77
2018-12-02T04:32:27.952Z,3.00
2018-12-02T04:34:59.706Z,3.03
2018-12-02T04:37:32.083Z,3.13
2018-12-02T04:40:03.529Z,3.10
2018-12-02T04:42:35.768Z,3.40
2018-12-02T04:45:09.261Z,3.23
2018-12-02T04:47:40.886Z,3.00
2018-12-02T04:50:24.961Z,3.30
2018-12-02T04:52:56.585Z,3.40
2018-12-02T04:55:28.025Z,3.60
2018-12-02T04:57:59.795Z,3.93
2018-12-02T05:00:33.010Z,3.40
2018-12-02T05:03:04.645Z,3.43
2018-12-02T05:05:35.965Z,3.77
2018-12-02T05:08:08.433Z,3.40
2018-12-02T05:10:39.792Z,3.60
2018-12-02T05:13:11.865Z,3.83
2018-12-02T05:15:43.207Z,4.07
2018-12-02T05:18:15.262Z,4.00
2018-12-02T05:20:46.680Z,4.20
2018-12-02T05:23:18.367Z,4.03
2018-12-02T05:25:49.662Z,3.90
2018-12-02T05:28:21.017Z,4.27
2018-12-02T05:30:53.056Z,4.73
2018-12-02T05:33:25.059Z,4.60
2018-12-02T05:35:56.785Z,4.97
2018-12-02T05:38:28.364Z,5.20
2018-12-02T05:41:00.311Z,4.83
2018-12-02T05:43:31.972Z,5.17
2018-12-02T05:46:03.399Z,5.80
2018-12-02T05:48:35.038Z,5.23
2018-12-02T05:51:07.154Z,5.70
2018-12-02T05:53:39.256Z,6.33
2018-12-02T05:56:10.601Z,6.77
2018-12-02T05:58:42.534Z,6.70
2018-12-02T06:01:13.920Z,7.07
2018-12-02T06:03:45.263Z,7.20
2018-12-02T06:06:17.095Z,6.80
2018-12-02T06:08:49.171Z,7.80
2018-12-02T06:11:20.611Z,7.80
2018-12-02T06:13:51.935Z,7.77
2018-12-02T06:16:23.518Z,8.20
2018-12-02T06:18:54.892Z,8.50
2018-12-02T06:21:27.406Z,8.30
2018-12-02T06:23:59.081Z,8.90
2018-12-02T06:26:30.749Z,9.33
2018-12-02T06:29:02.446Z,9.40
2018-12-02T06:31:34.567Z,9.80
2018-12-02T06:34:07.843Z,8.97
2018-12-02T06:36:39.136Z,8.73
2018-12-02T06:39:11.809Z,9.93
2018-12-02T06:41:43.155Z,9.07
2018-12-02T06:44:14.791Z,9.93
2018-12-02T06:46:46.127Z,9.27
2018-12-02T06:49:17.827Z,8.70
2018-12-02T06:51:49.302Z,9.40
2018-12-02T06:54:21.381Z,10.20
2018-12-02T06:57:03.904Z,9.70
2018-12-02T07:00:00.799Z,9.77
2018-12-02T07:02:58.599Z,9.53
2018-12-02T07:05:39.217Z,9.83
2018-12-02T07:08:10.847Z,9.47
2018-12-02T07:10:42.847Z,9.60
2018-12-02T07:13:14.495Z,9.70
2018-12-02T07:15:45.794Z,9.90
2018-12-02T07:18:23.495Z,9.73
2018-12-02T07:20:58.489Z,8.87
2018-12-02T07:23:31.797Z,9.23
2018-12-02T07:26:10.274Z,9.10
2018-12-02T07:28:42.025Z,9.03
2018-12-02T07:31:13.442Z,9.17
2018-12-02T07:33:45.977Z,9.30
2018-12-02T07:36:24.261Z,9.10
2018-12-02T07:39:35.680Z,9.13
2018-12-02T07:42:08.623Z,8.73
2018-12-02T07:44:41.420Z,8.97
2018-12-02T07:47:13.090Z,8.80
2018-12-02T07:49:45.134Z,8.43
2018-12-02T07:52:16.908Z,9.10
2018-12-02T07:54:49.022Z,9.00
2018-12-02T07:57:21.175Z,8.93
2018-12-02T07:59:53.316Z,8.10
2018-12-02T08:02:25.304Z,7.70
2018-12-02T08:04:56.680Z,9.13
2018-12-02T08:07:27.996Z,8.07
2018-12-02T08:10:01.343Z,7.73
2018-12-02T08:12:32.767Z,7.23
2018-12-02T08:15:04.997Z,7.60
2018-12-02T08:17:36.734Z,7.93
2018-12-02T08:20:13.277Z,8.13
2018-12-02T08:22:45.121Z,7.60
2018-12-02T08:25:18.196Z,7.43
2018-12-02T08:27:49.796Z,7.17
2018-12-02T08:30:25.910Z,7.47
2018-12-02T08:32:58.138Z,7.43
2018-12-02T08:35:31.350Z,7.10
2018-12-02T08:38:04.762Z,7.10
2018-12-02T08:40:36.960Z,7.37
2018-12-02T08:43:09.431Z,6.90
2018-12-02T08:45:41.229Z,6.57
2018-12-02T08:48:14.318Z,6.87
2018-12-02T08:50:45.589Z,9.03
2018-12-02T08:53:16.947Z,7.67
2018-12-02T08:55:49.378Z,7.20
2018-12-02T08:58:21.184Z,7.03
2018-12-02T09:00:52.790Z,6.90
2018-12-02T09:03:24.550Z,6.47
2018-12-02T09:05:56.002Z,6.83
2018-12-02T09:08:28.221Z,7.77
2018-12-02T09:11:00.560Z,7.37
2018-12-02T09:13:32.069Z,7.20
2018-12-02T09:16:03.469Z,7.57
2018-12-02T09:18:35.246Z,7.07
2018-12-02T09:21:07.561Z,6.60
2018-12-02T09:23:39.899Z,7.17
2018-12-02T09:26:12.419Z,7.40
2018-12-02T09:28:43.888Z,7.00
2018-12-02T09:31:15.377Z,6.60
2018-12-02T09:33:53.816Z,6.20
2018-12-02T09:36:27.612Z,7.27
2018-12-02T09:38:59.642Z,7.00
2018-12-02T09:41:33.632Z,6.37
2018-12-02T09:44:11.280Z,6.03
2018-12-02T09:49:19.907Z,6.43
2018-12-02T09:51:51.241Z,5.80
2018-12-02T09:54:23.486Z,5.97
2018-12-02T09:56:55.776Z,6.70
2018-12-02T09:59:27.808Z,5.80
2018-12-02T10:01:59.468Z,6.00
2018-12-02T10:04:31.997Z,6.57
2018-12-02T10:07:04.451Z,6.70
2018-12-02T10:09:36.580Z,5.80
2018-12-02T10:12:08.117Z,5.90
2018-12-02T10:14:39.782Z,5.80
2018-12-02T10:17:11.087Z,5.80
2018-12-02T10:19:42.321Z,5.80
2018-12-02T10:22:13.536Z,5.70
2018-12-02T10:24:44.961Z,5.60
2018-12-02T10:27:16.265Z,6.10
2018-12-02T10:29:47.785Z,5.67
2018-12-02T10:32:19.925Z,5.60
2018-12-02T10:34:52.109Z,5.33
2018-12-02T10:37:24.081Z,5.20
2018-12-02T10:39:57.340Z,5.50
2018-12-02T10:42:28.683Z,5.30
2018-12-02T10:45:01.075Z,5.50
2018-12-02T10:47:39.458Z,5.23
2018-12-02T10:50:43.602Z,5.00
2018-12-02T10:53:20.695Z,4.53
2018-12-02T10:55:58.307Z,5.13
2018-12-02T10:58:35.808Z,4.63
2018-12-02T11:01:18.320Z,4.97
2018-12-02T11:03:49.952Z,4.80
2018-12-02T11:06:21.734Z,4.37
2018-12-02T11:08:53.132Z,4.50
2018-12-02T11:11:24.955Z,5.23
2018-12-02T11:13:56.356Z,5.60
2018-12-02T11:16:27.755Z,4.70
2018-12-02T11:18:59.757Z,4.57
2018-12-02T11:21:31.529Z,4.43
2018-12-02T11:24:02.876Z,4.63
2018-12-02T11:26:34.658Z,5.10
2018-12-02T11:29:06.541Z,5.03
2018-12-02T11:31:38.216Z,4.30
2018-12-02T11:34:09.734Z,4.03
2018-12-02T11:36:41.312Z,5.03
2018-12-02T11:39:13.523Z,4.90
2018-12-02T11:41:45.991Z,4.60
2018-12-02T11:44:17.646Z,4.33
2018-12-02T11:46:49.796Z,4.13
2018-12-02T11:49:21.133Z,4.47
2018-12-02T11:51:53.501Z,5.40
2018-12-02T11:54:24.891Z,4.70
2018-12-02T11:56:56.195Z,4.30
2018-12-02T11:59:27.728Z,4.10
2018-12-02T12:01:59.853Z,5.97
2018-12-02T12:04:31.716Z,4.63
2018-12-02T12:07:03.294Z,4.13
2018-12-02T12:09:35.006Z,3.77
2018-12-02T12:12:06.522Z,3.90
2018-12-02T12:14:37.867Z,4.10
2018-12-02T12:17:10.043Z,3.67
2018-12-02T12:19:42.051Z,4.07
2018-12-02T12:22:13.445Z,4.30
2018-12-02T12:24:45.642Z,3.83
2018-12-02T12:27:17.275Z,4.27
2018-12-02T12:29:48.704Z,4.10
2018-12-02T12:32:20.054Z,3.73
2018-12-02T12:34:51.583Z,3.93
2018-12-02T12:37:23.466Z,4.10
2018-12-02T12:39:55.072Z,3.80
2018-12-02T12:42:26.750Z,3.60
2018-12-02T12:44:58.710Z,4.50
2018-12-02T12:47:30.522Z,4.43
2018-12-02T12:50:02.150Z,4.00
2018-12-02T12:52:33.551Z,4.37
2018-12-02T12:55:04.899Z,4.80
2018-12-02T12:57:37.026Z,4.80
2018-12-02T13:00:14.721Z,5.07
2018-12-02T13:02:46.689Z,5.33
2018-12-02T13:05:25.146Z,5.83
2018-12-02T13:07:56.785Z,6.40
2018-12-02T13:10:28.532Z,6.17
2018-12-02T13:13:00.437Z,6.40
2018-12-02T13:15:32.150Z,6.57
2018-12-02T13:18:04.573Z,7.07
2018-12-02T13:20:40.475Z,7.27
2018-12-02T13:23:12.243Z,8.87
2018-12-02T13:25:44.022Z,10.33
2018-12-02T13:28:15.551Z,8.97
2018-12-02T13:30:46.988Z,9.33
2018-12-02T13:33:19.017Z,10.83
2018-12-02T13:35:50.959Z,10.20
2018-12-02T13:38:24.598Z,10.43
2018-12-02T13:40:56.148Z,11.87
2018-12-02T13:43:35.836Z,12.03
2018-12-02T13:46:11.743Z,12.03
2018-12-02T13:49:02.246Z,13.77
2018-12-02T13:51:33.812Z,11.90
2018-12-02T13:54:26.727Z,12.77
2018-12-02T13:56:58.442Z,12.00
2018-12-02T13:59:30.269Z,12.67
2018-12-02T14:02:01.634Z,12.53
2018-12-02T14:04:34.524Z,12.33
2018-12-02T14:07:05.836Z,13.17
2018-12-02T14:09:37.207Z,12.90
2018-12-02T14:12:08.682Z,12.60
2018-12-02T14:14:42.607Z,13.20
2018-12-02T14:17:19.497Z,12.67
2018-12-02T14:19:51.580Z,13.00
2018-12-02T14:22:23.969Z,13.37
2018-12-02T14:24:55.511Z,12.23
2018-12-02T14:27:27.767Z,11.37
2018-12-02T14:29:59.347Z,12.10
2018-12-02T14:32:31.765Z,11.63
2018-12-02T14:35:03.386Z,11.80
2018-12-02T14:37:35.304Z,11.93
2018-12-02T14:40:11.753Z,10.77
2018-12-02T14:42:44.364Z,11.20
2018-12-02T14:45:17.079Z,12.50
2018-12-02T14:47:48.898Z,11.70
2018-12-02T14:50:20.571Z,11.97
2018-12-02T14:52:52.578Z,12.53
2018-12-02T14:55:24.138Z,12.23
2018-12-02T14:57:55.480Z,12.67
2018-12-02T15:00:27.134Z,12.50
2018-12-02T15:02:58.535Z,13.40
2018-12-02T15:05:30.181Z,13.73
2018-12-02T15:08:01.855Z,14.67
2018-12-02T15:10:33.690Z,14.57
2018-12-02T15:13:05.336Z,15.00
2018-12-02T15:15:36.828Z,16.23
2018-12-02T15:18:09.010Z,15.47
2018-12-02T15:20:40.637Z,16.27
2018-12-02T15:23:12.631Z,16.90
2018-12-02T15:25:44.065Z,15.97
2018-12-02T15:28:15.807Z,17.20
2018-12-02T15:30:47.547Z,16.73
2018-12-02T15:33:18.886Z,18.17
2018-12-02T15:35:50.545Z,17.90
2018-12-02T15:38:21.865Z,17.77
2018-12-02T15:40:53.472Z,17.77
2018-12-02T15:43:24.878Z,18.77
2018-12-02T15:45:56.756Z,17.57
2018-12-02T15:48:29.009Z,17.77
2018-12-02T15:51:00.232Z,18.40
2018-12-02T15:53:31.951Z,18.37
2018-12-02T15:56:03.708Z,18.60
2018-12-02T15:58:35.154Z,19.37
2018-12-02T16:01:06.479Z,18.80
2018-12-02T16:03:38.530Z,20.43
2018-12-02T16:06:09.893Z,18.90
2018-12-02T16:08:41.331Z,19.00
2018-12-02T16:11:12.666Z,20.13
2018-12-02T16:13:43.971Z,22.07
2018-12-02T16:16:15.446Z,20.83
2018-12-02T16:18:46.858Z,19.60
2018-12-02T16:21:18.213Z,19.53
2018-12-02T16:23:49.637Z,21.13
2018-12-02T16:26:21.291Z,19.77
2018-12-02T16:28:53.180Z,19.47
2018-12-02T16:31:24.989Z,19.27
2018-12-02T16:33:56.692Z,19.10
2018-12-02T16:36:28.322Z,19.20
2018-12-02T16:39:00.298Z,18.27
2018-12-02T16:41:34.298Z,17.20
2018-12-02T16:44:06.108Z,16.90
2018-12-02T16:49:27.189Z,16.90
2018-12-02T16:51:59.055Z,16.53
2018-12-02T16:54:30.426Z,16.90
2018-12-02T16:57:03.279Z,17.17
2018-12-02T16:59:35.660Z,16.40
2018-12-02T17:02:09.432Z,16.10
2018-12-02T17:04:41.053Z,16.80
2018-12-02T17:07:13.458Z,13.87
2018-12-02T17:09:45.789Z,14.07
2018-12-02T17:12:17.613Z,13.40
2018-12-02T17:14:49.591Z,13.10
2018-12-02T17:17:21.614Z,13.40
2018-12-02T17:19:53.689Z,13.73
2018-12-02T17:22:25.730Z,15.17
2018-12-02T17:24:58.688Z,15.80
2018-12-02T17:27:30.551Z,16.50
2018-12-02T17:30:02.833Z,16.70
2018-12-02T17:32:34.300Z,16.07
2018-12-02T17:35:06.092Z,15.73
2018-12-02T17:37:38.294Z,16.50
2018-12-02T17:40:24.054Z,15.33
2018-12-02T17:42:55.376Z,14.07
2018-12-02T17:45:27.493Z,13.30
2018-12-02T17:47:58.843Z,14.20
2018-12-02T17:50:30.149Z,12.37
2018-12-02T17:53:02.572Z,12.47
2018-12-02T17:55:35.147Z,12.20
2018-12-02T17:58:06.937Z,12.57
2018-12-02T18:00:39.689Z,12.63
2018-12-02T18:03:12.817Z,11.90
2018-12-02T18:05:47.512Z,11.67
2018-12-02T18:08:19.626Z,12.00
2018-12-02T18:10:52.129Z,12.60
2018-12-02T18:13:25.010Z,12.47
2018-12-02T18:15:56.390Z,12.93
2018-12-02T18:18:28.656Z,12.13
2018-12-02T18:21:00.591Z,15.37
2018-12-02T18:23:33.749Z,12.20
2018-12-02T18:26:05.599Z,11.90
2018-12-02T18:28:38.629Z,12.30
2018-12-02T18:31:10.016Z,12.07
2018-12-02T18:33:43.552Z,12.03
2018-12-02T18:36:20.095Z,11.57
2018-12-02T18:38:52.706Z,12.50
2018-12-02T18:41:26.063Z,15.13
2018-12-02T18:43:58.626Z,15.10
2018-12-02T18:46:30.668Z,14.47
2018-12-02T18:49:02.052Z,14.67
2018-12-02T18:51:38.152Z,14.47
2018-12-02T18:54:11.633Z,14.50
2018-12-02T18:56:45.184Z,14.20
2018-12-02T18:59:16.984Z,15.63
2018-12-02T19:01:48.545Z,15.77
2018-12-02T19:04:20.328Z,17.23
2018-12-02T19:06:58.379Z,16.80
2018-12-02T19:09:27.379Z,16.50
2018-12-02T19:11:59.727Z,15.43
2018-12-02T19:14:31.504Z,15.13
2018-12-02T19:17:04.444Z,15.30
2018-12-02T19:19:36.035Z,15.93
2018-12-02T19:22:08.748Z,16.37
2018-12-02T19:24:40.854Z,15.77
2018-12-02T19:27:13.019Z,14.47
2018-12-02T19:29:45.653Z,14.73
2018-12-02T19:32:18.241Z,16.20
2018-12-02T19:34:49.944Z,15.37
2018-12-02T19:37:22.128Z,16.23
2018-12-02T19:39:54.466Z,17.07
2018-12-02T19:45:01.779Z,17.57
2018-12-02T19:47:33.267Z,16.40
2018-12-02T19:50:05.343Z,16.43
2018-12-02T19:52:37.279Z,17.47
2018-12-02T19:55:10.972Z,17.07
2018-12-02T19:57:44.998Z,17.33
2018-12-02T20:00:27.596Z,17.13
2018-12-02T20:02:59.791Z,17.10
2018-12-02T20:05:31.266Z,16.90
2018-12-02T20:08:03.636Z,18.50
2018-12-02T20:10:35.826Z,19.00
2018-12-02T20:13:14.665Z,19.47
2018-12-02T20:16:03.768Z,19.73
2018-12-02T20:18:36.166Z,19.63
2018-12-02T20:21:07.995Z,19.73
2018-12-02T20:23:57.661Z,20.90
2018-12-02T20:26:30.087Z,20.17
2018-12-02T20:29:01.517Z,21.40
2018-12-02T20:31:32.999Z,20.73
2018-12-02T20:34:05.041Z,21.50
2018-12-02T20:36:37.341Z,20.50
2018-12-02T20:39:11.661Z,21.23
2018-12-02T20:41:44.043Z,21.30
2018-12-02T20:44:16.433Z,22.07
2018-12-02T20:46:48.654Z,20.87
2018-12-02T20:49:21.176Z,20.93
2018-12-02T20:51:52.678Z,22.30
2018-12-02T20:54:24.545Z,21.60
2018-12-02T20:56:56.879Z,21.00
2018-12-02T20:59:29.021Z,21.23
2018-12-02T21:02:00.375Z,22.60
2018-12-02T21:04:32.805Z,21.70
2018-12-02T21:07:04.732Z,22.10
2018-12-02T21:09:36.569Z,21.23
2018-12-02T21:12:08.483Z,23.40
2018-12-02T21:14:40.856Z,21.80
2018-12-02T21:17:12.956Z,23.10
2018-12-02T21:19:44.994Z,21.83
2018-12-02T21:22:16.783Z,23.90
2018-12-02T21:24:48.323Z,21.93
2018-12-02T21:27:20.515Z,22.23
2018-12-02T21:29:55.958Z,21.00
2018-12-02T21:32:27.944Z,22.33
2018-12-02T21:35:00.140Z,22.57
2018-12-02T21:37:32.673Z,21.63
2018-12-02T21:40:06.456Z,24.23
2018-12-02T21:42:38.627Z,22.93
2018-12-02T21:45:10.996Z,20.47
2018-12-02T21:47:58.392Z,21.60
2018-12-02T21:50:33.767Z,21.10
2018-12-02T21:53:05.721Z,20.13
2018-12-02T21:55:37.415Z,18.03
2018-12-02T21:58:09.933Z,17.17
2018-12-02T22:00:59.129Z,16.57
2018-12-02T22:03:30.932Z,15.37
2018-12-02T22:06:02.713Z,15.77
2018-12-02T22:08:35.173Z,14.30
2018-12-02T22:11:06.669Z,15.13
2018-12-02T22:13:43.340Z,14.10
2018-12-02T22:16:11.251Z,13.53
2018-12-02T22:18:43.274Z,13.43
2018-12-02T22:21:15.303Z,12.83
2018-12-02T22:23:48.018Z,13.30
2018-12-02T22:26:19.381Z,12.67
2018-12-02T22:28:51.085Z,13.20
2018-12-02T22:31:23.544Z,12.97
2018-12-02T22:33:55.681Z,11.73
2018-12-02T22:36:27.659Z,12.90
2018-12-02T22:38:59.861Z,13.00
2018-12-02T22:41:31.594Z,12.27
2018-12-02T22:44:03.076Z,11.57
2018-12-02T22:46:35.671Z,13.03
2018-12-02T22:49:07.940Z,11.97
2018-12-02T22:51:39.575Z,12.23
2018-12-02T22:54:12.221Z,13.00
2018-12-02T22:56:45.156Z,11.77
2018-12-02T22:59:16.867Z,11.23
2018-12-02T23:02:05.042Z,11.33
2018-12-02T23:04:36.510Z,11.10
2018-12-02T23:07:08.242Z,11.00
2018-12-02T23:09:41.544Z,10.53
2018-12-02T23:12:13.254Z,11.03
2018-12-02T23:14:45.646Z,10.93
2018-12-02T23:17:22.165Z,11.20
2018-12-02T23:19:54.520Z,14.00
2018-12-02T23:22:27.128Z,15.93
2018-12-02T23:24:59.126Z,16.00
2018-12-02T23:27:30.871Z,17.17
2018-12-02T23:30:02.232Z,18.23
2018-12-02T23:32:34.420Z,17.80
2018-12-02T23:35:07.634Z,16.90
2018-12-02T23:37:39.511Z,18.53
2018-12-02T23:40:36.474Z,17.00
2018-12-02T23:43:08.524Z,17.30
2018-12-02T23:45:39.996Z,17.27
2018-12-02T23:48:11.648Z,18.33
2018-12-02T23:50:43.671Z,18.03
2018-12-02T23:53:16.514Z,16.93
2018-12-02T23:55:47.915Z,17.47
2018-12-02T23:58:19.946Z,16.60
